Time;durP1;ratioP1;P1;durP2;ratioP2;P2;SDS_P1;SDS_P2;PMS_P1;PMS_P2;Temp;Humidity;BMP_temperature;BMP_pressure;BME280_temperature;BME280_humidity;BME280_pressure;Samples;Min_cycle;Max_cycle;Signal;HPM_P1;HPM_P2
2022/12/19 00:02:06;;;;;;;40.93;14.20;;;;;;;;;;5092404;28;20450;-71
2022/12/19 00:04:34;;;;;;;43.13;19.50;;;;;;;;;;5092381;28;20454;-71
2022/12/19 00:07:01;;;;;;;18.47;10.07;;;;;;;;;;5092790;28;21034;-72
2022/12/19 00:09:28;;;;;;;25.97;16.83;;;;;;;;;;5093014;28;20492;-72
2022/12/19 00:11:56;;;;;;;34.70;16.47;;;;;;;;;;5092777;28;20458;-71
2022/12/19 00:14:23;;;;;;;37.50;16.03;;;;;;;;;;5092151;28;20458;-71
2022/12/19 00:16:50;;;;;;;42.43;14.47;;;;;;;;;;5092787;28;20451;-71
2022/12/19 00:19:17;;;;;;;25.53;9.93;;;;;;;;;;5093082;28;20955;-71
2022/12/19 00:21:45;;;;;;;27.03;13.37;;;;;;;;;;5092111;28;20478;-71
2022/12/19 00:24:12;;;;;;;42.10;17.43;;;;;;;;;;5092182;28;20944;-71
2022/12/19 00:26:39;;;;;;;34.43;12.60;;;;;;;;;;5092812;28;20464;-71
2022/12/19 00:29:07;;;;;;;30.10;11.20;;;;;;;;;;5092678;28;20842;-70
2022/12/19 00:31:35;;;;;;;40.17;17.37;;;;;;;;;;5092907;28;20475;-70
2022/12/19 00:34:02;;;;;;;35.27;14.97;;;;;;;;;;5092274;28;20447;-71
2022/12/19 00:36:30;;;;;;;42.57;19.40;;;;;;;;;;5092579;28;20454;-72
2022/12/19 00:38:59;;;;;;;40.73;16.90;;;;;;;;;;5092763;28;20475;-71
2022/12/19 00:41:27;;;;;;;32.27;12.73;;;;;;;;;;5092596;28;20447;-70
2022/12/19 00:43:55;;;;;;;34.83;15.07;;;;;;;;;;5092018;28;20462;-71
2022/12/19 00:46:23;;;;;;;18.37;8.83;;;;;;;;;;5092556;28;20482;-71
2022/12/19 00:48:50;;;;;;;23.77;13.93;;;;;;;;;;5092221;28;20470;-71
2022/12/19 00:51:18;;;;;;;36.33;17.43;;;;;;;;;;5091220;28;20475;-71
2022/12/19 00:53:46;;;;;;;42.67;16.60;;;;;;;;;;5091540;28;20456;-71
2022/12/19 00:56:15;;;;;;;26.60;11.73;;;;;;;;;;5092369;28;20978;-71
2022/12/19 00:58:42;;;;;;;27.80;11.73;;;;;;;;;;5092283;28;20989;-72
2022/12/19 01:01:10;;;;;;;34.50;14.43;;;;;;;;;;5091096;28;20906;-70
2022/12/19 01:03:37;;;;;;;46.77;17.87;;;;;;;;;;5091812;28;20454;-71
2022/12/19 01:06:05;;;;;;;21.90;12.57;;;;;;;;;;5092331;28;20458;-71
2022/12/19 01:08:32;;;;;;;24.77;12.67;;;;;;;;;;5092525;28;20840;-71
2022/12/19 01:10:59;;;;;;;33.70;12.13;;;;;;;;;;5092177;28;20478;-71
2022/12/19 01:13:28;;;;;;;37.13;16.53;;;;;;;;;;5095491;28;20821;-71
2022/12/19 01:15:55;;;;;;;46.20;16.63;;;;;;;;;;5095861;28;20457;-71
2022/12/19 01:18:23;;;;;;;34.67;14.13;;;;;;;;;;5095865;28;20469;-71
2022/12/19 01:20:50;;;;;;;25.50;13.17;;;;;;;;;;5095910;28;20683;-71
2022/12/19 01:23:17;;;;;;;31.53;13.73;;;;;;;;;;5096209;28;20446;-70
2022/12/19 01:25:49;;;;;;;28.57;13.40;;;;;;;;;;5095357;28;20932;-71
2022/12/19 01:28:16;;;;;;;39.90;15.43;;;;;;;;;;5095924;28;20470;-73
2022/12/19 01:30:44;;;;;;;42.10;15.50;;;;;;;;;;5093134;28;21003;-72
2022/12/19 01:33:12;;;;;;;41.83;19.67;;;;;;;;;;5095789;28;20450;-72
2022/12/19 01:35:40;;;;;;;43.73;19.20;;;;;;;;;;5095023;28;20523;-72
2022/12/19 01:38:07;;;;;;;28.00;12.27;;;;;;;;;;5095644;28;20470;-70
2022/12/19 01:40:34;;;;;;;21.13;8.63;;;;;;;;;;5095613;28;20451;-72
2022/12/19 01:43:02;;;;;;;32.10;14.13;;;;;;;;;;5095433;28;20451;-71
2022/12/19 01:45:32;;;;;;;45.87;17.60;;;;;;;;;;5094962;28;20459;-71
2022/12/19 01:48:05;;;;;;;34.53;13.70;;;;;;;;;;5095320;28;20821;-70
2022/12/19 01:50:35;;;;;;;47.60;9.50;;;;;;;;;;5095455;28;20505;-70
2022/12/19 01:53:02;;;;;;;27.40;11.90;;;;;;;;;;5095294;28;20450;-72
2022/12/19 01:55:29;;;;;;;28.60;9.93;;;;;;;;;;5094741;28;20446;-71
2022/12/19 01:57:57;;;;;;;39.57;14.17;;;;;;;;;;5094923;28;20838;-72
2022/12/19 02:00:24;;;;;;;24.67;11.57;;;;;;;;;;5095277;28;20442;-71
2022/12/19 02:02:54;;;;;;;25.57;10.37;;;;;;;;;;5095110;28;20791;-72
2022/12/19 02:05:22;;;;;;;43.07;17.50;;;;;;;;;;5094543;28;20955;-71
2022/12/19 02:07:50;;;;;;;31.50;13.30;;;;;;;;;;5094964;28;20462;-71
2022/12/19 02:10:17;;;;;;;33.73;16.63;;;;;;;;;;5094840;28;20482;-72
2022/12/19 02:12:46;;;;;;;28.03;12.13;;;;;;;;;;5094941;28;20447;-72
2022/12/19 02:15:15;;;;;;;29.20;14.80;;;;;;;;;;5094356;28;20973;-72
2022/12/19 02:17:48;;;;;;;33.50;11.83;;;;;;;;;;5095032;28;20465;-73
2022/12/19 02:20:43;;;;;;;22.67;13.00;;;;;;;;;;5094867;28;20514;-71
2022/12/19 02:23:20;;;;;;;35.30;13.40;;;;;;;;;;5094758;28;20813;-71
2022/12/19 02:25:50;;;;;;;35.97;18.57;;;;;;;;;;5094214;28;20481;-71
2022/12/19 02:28:29;;;;;;;39.73;15.67;;;;;;;;;;5094820;28;20485;-70
2022/12/19 02:31:02;;;;;;;38.07;15.03;;;;;;;;;;5092681;28;21006;-71
2022/12/19 02:33:33;;;;;;;51.90;18.60;;;;;;;;;;5094159;28;20464;-72
2022/12/19 02:36:04;;;;;;;47.30;18.33;;;;;;;;;;5094500;28;20450;-71
2022/12/19 02:38:34;;;;;;;33.40;12.87;;;;;;;;;;5094677;28;20473;-70
2022/12/19 02:41:05;;;;;;;33.43;15.47;;;;;;;;;;5094462;28;20852;-70
2022/12/19 02:43:34;;;;;;;39.27;18.97;;;;;;;;;;5093891;28;20461;-72
2022/12/19 02:46:04;;;;;;;32.97;16.17;;;;;;;;;;5094144;28;20453;-71
2022/12/19 02:48:31;;;;;;;36.97;15.93;;;;;;;;;;5094602;28;20467;-70
2022/12/19 02:50:58;;;;;;;29.80;12.90;;;;;;;;;;5094156;28;20493;-71
2022/12/19 02:53:26;;;;;;;23.77;12.90;;;;;;;;;;5093964;28;20451;-71
2022/12/19 02:56:02;;;;;;;33.83;16.13;;;;;;;;;;5093886;28;20463;-72
2022/12/19 02:58:36;;;;;;;28.63;9.77;;;;;;;;;;5094103;28;20474;-71
2022/12/19 03:01:11;;;;;;;39.43;16.00;;;;;;;;;;5094183;28;20821;-71
2022/12/19 03:03:43;;;;;;;38.93;16.40;;;;;;;;;;5093465;28;20450;-71
2022/12/19 03:06:13;;;;;;;36.93;14.90;;;;;;;;;;5094002;28;20451;-70
2022/12/19 03:08:49;;;;;;;11.43;7.50;;;;;;;;;;5093831;28;20560;-71
2022/12/19 03:11:16;;;;;;;33.67;16.17;;;;;;;;;;5094142;28;21032;-70
2022/12/19 03:13:45;;;;;;;47.83;18.30;;;;;;;;;;5093262;28;20946;-71
2022/12/19 03:16:14;;;;;;;34.53;15.00;;;;;;;;;;5093923;28;20822;-70
2022/12/19 03:18:41;;;;;;;45.57;19.23;;;;;;;;;;5093609;28;20595;-71
2022/12/19 03:21:11;;;;;;;20.53;10.87;;;;;;;;;;5093631;28;20446;-72
2022/12/19 03:23:39;;;;;;;36.30;18.20;;;;;;;;;;5092936;28;20462;-72
2022/12/19 03:26:07;;;;;;;34.87;16.20;;;;;;;;;;5093556;28;20460;-70
2022/12/19 03:28:37;;;;;;;35.10;12.87;;;;;;;;;;5093736;28;20481;-72
2022/12/19 03:31:05;;;;;;;47.03;17.87;;;;;;;;;;5093676;28;20490;-70
2022/12/19 03:33:34;;;;;;;46.60;18.20;;;;;;;;;;5092915;28;20947;-72
2022/12/19 03:36:04;;;;;;;33.67;15.07;;;;;;;;;;5092468;28;20840;-71
2022/12/19 03:38:32;;;;;;;37.27;20.07;;;;;;;;;;5093278;28;20474;-70
2022/12/19 03:41:00;;;;;;;34.93;15.53;;;;;;;;;;5093403;28;20949;-70
2022/12/19 03:43:28;;;;;;;41.00;18.67;;;;;;;;;;5092980;28;20446;-75
2022/12/19 03:45:56;;;;;;;41.03;16.87;;;;;;;;;;5093059;28;20487;-71
2022/12/19 03:48:26;;;;;;;54.57;17.37;;;;;;;;;;5093257;28;20482;-70
2022/12/19 03:50:59;;;;;;;37.73;16.17;;;;;;;;;;5093201;28;20489;-71
2022/12/19 03:53:34;;;;;;;49.03;17.20;;;;;;;;;;5093342;28;20446;-72
2022/12/19 03:56:06;;;;;;;35.40;16.83;;;;;;;;;;5092953;28;20955;-71
2022/12/19 03:58:34;;;;;;;44.90;15.77;;;;;;;;;;5093000;28;20475;-72
2022/12/19 04:01:04;;;;;;;33.50;17.83;;;;;;;;;;5093090;28;20981;-71
2022/12/19 04:03:32;;;;;;;33.00;16.80;;;;;;;;;;5092670;28;20960;-71
2022/12/19 04:06:01;;;;;;;55.63;21.13;;;;;;;;;;5092835;28;20957;-71
2022/12/19 04:08:29;;;;;;;30.80;16.27;;;;;;;;;;5092920;28;20473;-71
2022/12/19 04:10:59;;;;;;;41.90;17.63;;;;;;;;;;5092713;28;20850;-71
2022/12/19 04:13:30;;;;;;;32.73;16.13;;;;;;;;;;5092790;28;20451;-71
2022/12/19 04:16:00;;;;;;;45.33;19.03;;;;;;;;;;5092707;28;20545;-71
2022/12/19 04:18:28;;;;;;;42.77;16.80;;;;;;;;;;5092855;28;20478;-71
2022/12/19 04:20:59;;;;;;;49.00;21.33;;;;;;;;;;5092867;28;20447;-71
2022/12/19 04:23:31;;;;;;;51.07;22.10;;;;;;;;;;5092622;28;20451;-71
2022/12/19 04:26:01;;;;;;;47.27;19.50;;;;;;;;;;5092668;28;20490;-72
2022/12/19 04:28:32;;;;;;;69.23;23.37;;;;;;;;;;5092860;28;20462;-70
2022/12/19 04:30:59;;;;;;;57.40;22.87;;;;;;;;;;5092760;28;20486;-70
2022/12/19 04:33:26;;;;;;;45.43;19.27;;;;;;;;;;5092787;28;20443;-71
2022/12/19 04:35:54;;;;;;;46.30;21.17;;;;;;;;;;5092486;28;20940;-71
2022/12/19 04:38:22;;;;;;;40.13;18.23;;;;;;;;;;5092374;28;20485;-72
2022/12/19 04:40:51;;;;;;;49.63;22.80;;;;;;;;;;5092741;28;20447;-71
2022/12/19 04:43:18;;;;;;;48.20;20.13;;;;;;;;;;5092988;28;20939;-70
2022/12/19 04:45:45;;;;;;;48.33;18.80;;;;;;;;;;5092120;28;20442;-71
2022/12/19 04:48:12;;;;;;;40.53;20.03;;;;;;;;;;5095490;28;20477;-72
2022/12/19 04:50:39;;;;;;;54.37;20.97;;;;;;;;;;5096536;28;21025;-72
2022/12/19 04:53:07;;;;;;;51.60;22.50;;;;;;;;;;5096545;28;20943;-71
2022/12/19 04:55:34;;;;;;;45.67;20.50;;;;;;;;;;5095737;28;20456;-71
2022/12/19 04:58:04;;;;;;;56.43;24.10;;;;;;;;;;5096359;28;20462;-71
2022/12/19 05:00:31;;;;;;;49.17;21.53;;;;;;;;;;5096438;28;20446;-71
2022/12/19 05:02:58;;;;;;;44.10;19.50;;;;;;;;;;5096278;28;20453;-72
2022/12/19 05:05:25;;;;;;;49.23;21.57;;;;;;;;;;5095668;28;20811;-71
2022/12/19 05:07:52;;;;;;;51.43;22.27;;;;;;;;;;5096074;28;20478;-70
2022/12/19 05:10:20;;;;;;;54.10;23.20;;;;;;;;;;5096273;28;20478;-70
2022/12/19 05:12:47;;;;;;;41.33;18.07;;;;;;;;;;5096096;28;20977;-71
2022/12/19 05:15:15;;;;;;;47.60;20.00;;;;;;;;;;5095773;28;21015;-70
2022/12/19 05:17:43;;;;;;;47.87;22.80;;;;;;;;;;5095858;28;20467;-71
2022/12/19 05:20:10;;;;;;;48.90;22.10;;;;;;;;;;5096104;28;20450;-71
2022/12/19 05:22:37;;;;;;;49.93;22.13;;;;;;;;;;5095941;28;20533;-71
2022/12/19 05:25:05;;;;;;;41.30;16.70;;;;;;;;;;5095261;28;20454;-70
2022/12/19 05:27:32;;;;;;;45.00;20.37;;;;;;;;;;5096064;28;20874;-70
2022/12/19 05:30:00;;;;;;;50.23;22.03;;;;;;;;;;5095879;28;20825;-71
2022/12/19 05:32:30;;;;;;;51.87;21.97;;;;;;;;;;5093223;28;20999;-71
2022/12/19 05:34:57;;;;;;;51.30;20.83;;;;;;;;;;5095102;28;20451;-71
2022/12/19 05:37:24;;;;;;;51.40;19.90;;;;;;;;;;5095775;28;20470;-71
2022/12/19 05:39:51;;;;;;;44.37;19.43;;;;;;;;;;5095690;28;20478;-71
2022/12/19 05:42:18;;;;;;;46.70;16.93;;;;;;;;;;5095715;28;20451;-72
2022/12/19 05:44:46;;;;;;;52.70;22.80;;;;;;;;;;5094793;28;20447;-71
2022/12/19 05:47:13;;;;;;;46.77;19.57;;;;;;;;;;5095399;28;20587;-71
2022/12/19 05:49:41;;;;;;;61.90;24.73;;;;;;;;;;5095588;28;20451;-71
2022/12/19 05:52:11;;;;;;;71.00;31.27;;;;;;;;;;5095387;28;20484;-71
2022/12/19 05:54:38;;;;;;;47.80;22.60;;;;;;;;;;5094625;28;20451;-71
2022/12/19 05:57:05;;;;;;;50.97;21.10;;;;;;;;;;5095266;28;20486;-71
2022/12/19 05:59:32;;;;;;;56.17;25.92;;;;;;;;;;5094068;28;20450;-71
2022/12/19 06:02:00;;;;;;;70.20;24.53;;;;;;;;;;5095238;28;20666;-71
2022/12/19 06:04:27;;;;;;;44.67;19.73;;;;;;;;;;5094570;28;20507;-71
2022/12/19 06:06:55;;;;;;;47.60;22.40;;;;;;;;;;5094803;28;20928;-71
2022/12/19 06:09:22;;;;;;;48.33;20.63;;;;;;;;;;5095112;28;20450;-71
2022/12/19 06:11:49;;;;;;;56.70;22.50;;;;;;;;;;5094923;28;20487;-71
2022/12/19 06:14:17;;;;;;;43.80;20.03;;;;;;;;;;5094323;28;20451;-70
2022/12/19 06:16:44;;;;;;;62.47;23.47;;;;;;;;;;5094832;28;20461;-70
2022/12/19 06:19:11;;;;;;;51.90;23.77;;;;;;;;;;5094949;28;20465;-70
2022/12/19 06:21:38;;;;;;;61.83;24.90;;;;;;;;;;5094967;28;20450;-70
2022/12/19 06:24:07;;;;;;;63.67;23.50;;;;;;;;;;5094315;28;20952;-70
2022/12/19 06:26:34;;;;;;;53.17;23.83;;;;;;;;;;5094823;28;20810;-71
2022/12/19 06:29:01;;;;;;;47.03;19.77;;;;;;;;;;5087984;28;20535;-70
2022/12/19 06:31:30;;;;;;;56.20;25.57;;;;;;;;;;5092700;28;20529;-70
2022/12/19 06:33:57;;;;;;;63.40;24.43;;;;;;;;;;5093368;28;20470;-70
2022/12/19 06:36:24;;;;;;;59.77;21.37;;;;;;;;;;5094500;28;20442;-70
2022/12/19 06:38:52;;;;;;;71.67;32.20;;;;;;;;;;5093806;28;20987;-70
2022/12/19 06:44:07;;;;;;;66.03;26.23;;;;;;;;;;5093381;28;20426;-70
2022/12/19 06:46:34;;;;;;;65.20;28.73;;;;;;;;;;5094178;28;20542;-70
2022/12/19 06:49:01;;;;;;;56.07;23.43;;;;;;;;;;5093864;28;20466;-70
2022/12/19 06:51:28;;;;;;;55.50;23.80;;;;;;;;;;5093964;28;20847;-70
2022/12/19 06:53:55;;;;;;;72.63;29.30;;;;;;;;;;5092918;28;20458;-71
2022/12/19 06:56:24;;;;;;;90.00;32.73;;;;;;;;;;5092995;28;20501;-69
2022/12/19 06:58:51;;;;;;;56.40;20.27;;;;;;;;;;5093545;28;20843;-70
2022/12/19 07:01:19;;;;;;;49.53;21.20;;;;;;;;;;5093863;28;20446;-70
2022/12/19 07:03:47;;;;;;;66.45;27.80;;;;;;;;;;5091861;28;20449;-70
2022/12/19 07:06:14;;;;;;;44.70;22.47;;;;;;;;;;5093599;28;20302;-72
2022/12/19 07:08:41;;;;;;;50.87;23.60;;;;;;;;;;5093426;28;20470;-71
2022/12/19 07:11:08;;;;;;;60.40;24.40;;;;;;;;;;5093625;28;20486;-70
2022/12/19 07:13:37;;;;;;;43.60;16.90;;;;;;;;;;5093053;28;20451;-72
2022/12/19 07:16:05;;;;;;;47.53;21.93;;;;;;;;;;5093324;28;20451;-70
2022/12/19 07:18:35;;;;;;;60.73;29.37;;;;;;;;;;5093249;28;20497;-70
2022/12/19 07:21:02;;;;;;;45.50;19.90;;;;;;;;;;5093408;28;20458;-71
2022/12/19 07:23:29;;;;;;;37.50;17.63;;;;;;;;;;5092009;28;20844;-70
2022/12/19 07:25:56;;;;;;;35.40;17.80;;;;;;;;;;5092965;28;20450;-70
2022/12/19 07:28:24;;;;;;;41.40;17.10;;;;;;;;;;5092998;28;20475;-70
2022/12/19 07:30:52;;;;;;;62.97;24.33;;;;;;;;;;5093145;28;20451;-70
2022/12/19 07:33:19;;;;;;;45.43;20.10;;;;;;;;;;5093119;28;20825;-71
2022/12/19 07:35:47;;;;;;;40.93;19.13;;;;;;;;;;5092595;28;20457;-70
2022/12/19 07:38:14;;;;;;;38.00;18.30;;;;;;;;;;5092941;28;20497;-70
2022/12/19 07:40:41;;;;;;;50.10;19.80;;;;;;;;;;5093117;28;20824;-70
2022/12/19 07:43:08;;;;;;;45.67;20.57;;;;;;;;;;5093176;28;20446;-70
2022/12/19 07:45:37;;;;;;;38.63;17.50;;;;;;;;;;5092261;28;20446;-70
2022/12/19 07:48:06;;;;;;;34.37;16.20;;;;;;;;;;5092610;28;20474;-70
2022/12/19 07:50:34;;;;;;;35.30;18.90;;;;;;;;;;5093381;28;20455;-67
2022/12/19 07:53:01;;;;;;;43.00;20.60;;;;;;;;;;5093815;28;20486;-68
2022/12/19 07:55:28;;;;;;;45.33;18.80;;;;;;;;;;5093812;28;20863;-68
2022/12/19 07:57:55;;;;;;;38.93;18.80;;;;;;;;;;5093286;28;20483;-68
2022/12/19 08:00:23;;;;;;;46.73;21.90;;;;;;;;;;5093768;28;20450;-68
2022/12/19 08:02:50;;;;;;;38.40;18.27;;;;;;;;;;5093757;28;20924;-68
2022/12/19 08:05:18;;;;;;;35.80;17.67;;;;;;;;;;5093705;28;20454;-68
2022/12/19 08:07:46;;;;;;;34.43;17.00;;;;;;;;;;5093539;28;20470;-68
2022/12/19 08:10:13;;;;;;;40.70;18.77;;;;;;;;;;5093352;28;20439;-68
2022/12/19 08:12:41;;;;;;;43.50;16.93;;;;;;;;;;5093176;28;20486;-68
2022/12/19 08:15:08;;;;;;;33.73;17.70;;;;;;;;;;5094199;28;20587;-68
2022/12/19 08:17:35;;;;;;;41.40;19.57;;;;;;;;;;5093338;28;20998;-68
2022/12/19 08:20:03;;;;;;;39.87;16.63;;;;;;;;;;5093304;28;20837;-68
2022/12/19 08:22:31;;;;;;;39.77;19.10;;;;;;;;;;5092903;28;20446;-68
2022/12/19 08:24:58;;;;;;;45.43;23.97;;;;;;;;;;5093100;28;20451;-68
2022/12/19 08:27:25;;;;;;;42.20;19.03;;;;;;;;;;5093385;28;20471;-68
2022/12/19 08:29:53;;;;;;;36.60;16.97;;;;;;;;;;5093143;28;20451;-68
2022/12/19 08:32:20;;;;;;;41.97;20.00;;;;;;;;;;5093042;28;20489;-68
2022/12/19 08:34:47;;;;;;;40.90;20.77;;;;;;;;;;5093055;28;20460;-68
2022/12/19 08:37:14;;;;;;;32.20;16.23;;;;;;;;;;5092947;28;20545;-68
2022/12/19 08:39:42;;;;;;;36.97;17.73;;;;;;;;;;5093263;28;20462;-68
2022/12/19 08:42:10;;;;;;;45.67;18.93;;;;;;;;;;5093323;28;20936;-68
2022/12/19 08:44:37;;;;;;;34.73;18.33;;;;;;;;;;5091530;28;20455;-68
2022/12/19 08:47:04;;;;;;;33.67;18.93;;;;;;;;;;5091010;28;20948;-68
2022/12/19 08:49:31;;;;;;;39.53;18.20;;;;;;;;;;5090604;28;20500;-68
2022/12/19 08:51:58;;;;;;;32.03;17.57;;;;;;;;;;5091041;28;20489;-68
2022/12/19 08:54:25;;;;;;;38.37;18.13;;;;;;;;;;5091363;28;20450;-68
2022/12/19 08:56:54;;;;;;;38.53;18.67;;;;;;;;;;5091206;28;20469;-68
2022/12/19 08:59:21;;;;;;;32.07;17.47;;;;;;;;;;5091992;28;20451;-68
2022/12/19 09:01:48;;;;;;;33.73;17.87;;;;;;;;;;5093114;28;20951;-68
2022/12/19 09:04:15;;;;;;;37.33;16.83;;;;;;;;;;5093102;28;20446;-68
2022/12/19 09:06:43;;;;;;;27.20;16.00;;;;;;;;;;5093128;28;20958;-68
2022/12/19 09:09:10;;;;;;;35.73;19.00;;;;;;;;;;5093040;28;20924;-68
2022/12/19 09:11:37;;;;;;;36.20;18.43;;;;;;;;;;5092767;28;20489;-68
2022/12/19 09:14:05;;;;;;;42.63;18.23;;;;;;;;;;5092906;28;20944;-68
2022/12/19 09:16:32;;;;;;;33.83;18.47;;;;;;;;;;5092951;28;20872;-68
2022/12/19 09:18:59;;;;;;;31.73;17.70;;;;;;;;;;5092902;28;20472;-68
2022/12/19 09:21:28;;;;;;;34.10;16.73;;;;;;;;;;5092609;28;20450;-68
2022/12/19 09:23:56;;;;;;;36.43;17.43;;;;;;;;;;5092877;28;20446;-68
2022/12/19 09:26:24;;;;;;;32.97;16.33;;;;;;;;;;5092582;28;20462;-68
2022/12/19 09:28:51;;;;;;;29.47;16.73;;;;;;;;;;5092817;28;20473;-68
2022/12/19 09:31:21;;;;;;;34.57;17.70;;;;;;;;;;5092910;28;20446;-68
2022/12/19 09:33:48;;;;;;;32.30;17.00;;;;;;;;;;5093293;28;20825;-68
2022/12/19 09:36:16;;;;;;;57.87;34.30;;;;;;;;;;5096355;28;20442;-68
2022/12/19 09:38:44;;;;;;;44.13;22.40;;;;;;;;;;5096049;28;20469;-68
2022/12/19 09:41:21;;;;;;;39.83;17.20;;;;;;;;;;5096259;28;20921;-68
2022/12/19 09:43:55;;;;;;;37.03;19.40;;;;;;;;;;5096118;28;20431;-68
2022/12/19 09:46:28;;;;;;;39.13;20.63;;;;;;;;;;5096197;28;20442;-68
2022/12/19 09:48:56;;;;;;;43.07;20.67;;;;;;;;;;5095764;28;20477;-68
2022/12/19 09:51:31;;;;;;;38.10;19.63;;;;;;;;;;5095828;28;20443;-68
2022/12/19 09:54:00;;;;;;;40.37;21.60;;;;;;;;;;5095980;28;20442;-68
2022/12/19 09:56:29;;;;;;;35.00;20.93;;;;;;;;;;5095619;28;20459;-68
2022/12/19 09:58:59;;;;;;;33.50;17.43;;;;;;;;;;5095526;28;20475;-68
2022/12/19 10:01:30;;;;;;;32.67;18.40;;;;;;;;;;5096014;28;20435;-68
2022/12/19 10:04:00;;;;;;;37.73;19.70;;;;;;;;;;5095941;28;20934;-68
2022/12/19 10:06:27;;;;;;;31.90;18.07;;;;;;;;;;5095557;28;20450;-68
2022/12/19 10:08:54;;;;;;;54.17;31.43;;;;;;;;;;5095422;28;20474;-68
2022/12/19 10:11:33;;;;;;;40.37;23.87;;;;;;;;;;5095728;28;20447;-68
2022/12/19 10:14:07;;;;;;;85.73;42.23;;;;;;;;;;5095777;28;20431;-68
2022/12/19 10:16:42;;;;;;;72.27;34.80;;;;;;;;;;5095330;28;20455;-68
2022/12/19 10:19:10;;;;;;;39.83;21.20;;;;;;;;;;5095327;28;20474;-68
2022/12/19 10:21:40;;;;;;;39.20;19.23;;;;;;;;;;5095533;28;20451;-68
2022/12/19 10:24:17;;;;;;;68.93;46.07;;;;;;;;;;5095297;28;20435;-68
2022/12/19 10:26:47;;;;;;;45.17;21.50;;;;;;;;;;5095220;28;20438;-68
2022/12/19 10:29:36;;;;;;;37.00;18.27;;;;;;;;;;5095503;28;20442;-68
2022/12/19 10:32:08;;;;;;;48.87;23.63;;;;;;;;;;5095338;28;20470;-68
2022/12/19 10:34:36;;;;;;;31.57;15.20;;;;;;;;;;5095043;28;20438;-68
2022/12/19 10:37:14;;;;;;;41.17;19.70;;;;;;;;;;5094927;28;20455;-68
2022/12/19 10:39:48;;;;;;;34.67;19.33;;;;;;;;;;5095277;28;20437;-68
2022/12/19 10:42:17;;;;;;;35.47;20.63;;;;;;;;;;5095179;28;20438;-68
2022/12/19 10:44:46;;;;;;;42.93;22.53;;;;;;;;;;5094605;28;20474;-68
2022/12/19 10:47:16;;;;;;;33.10;18.00;;;;;;;;;;5094991;28;20482;-68
2022/12/19 10:49:44;;;;;;;41.20;22.50;;;;;;;;;;5094870;28;20447;-68
2022/12/19 10:52:11;;;;;;;53.30;25.10;;;;;;;;;;5094692;28;20995;-68
2022/12/19 10:54:40;;;;;;;46.53;22.50;;;;;;;;;;5094580;28;20450;-68
2022/12/19 10:57:22;;;;;;;71.80;29.90;;;;;;;;;;5094457;28;20486;-68
2022/12/19 10:59:56;;;;;;;56.57;29.80;;;;;;;;;;5094903;28;20448;-68
2022/12/19 11:02:35;;;;;;;45.60;22.43;;;;;;;;;;5094806;28;20935;-68
2022/12/19 11:05:02;;;;;;;41.27;22.13;;;;;;;;;;5094814;28;20442;-68
2022/12/19 11:07:30;;;;;;;30.20;18.23;;;;;;;;;;5094527;28;20968;-68
2022/12/19 11:09:57;;;;;;;36.40;15.07;;;;;;;;;;5094338;28;20451;-68
2022/12/19 11:12:26;;;;;;;39.93;19.53;;;;;;;;;;5094553;28;20487;-68
2022/12/19 11:14:54;;;;;;;47.00;22.80;;;;;;;;;;5094288;28;20459;-68
2022/12/19 11:17:25;;;;;;;32.63;18.33;;;;;;;;;;5094126;28;20466;-68
2022/12/19 11:19:57;;;;;;;41.10;20.93;;;;;;;;;;5094491;28;20435;-68
2022/12/19 11:22:25;;;;;;;34.83;16.80;;;;;;;;;;5094138;28;20431;-68
2022/12/19 11:24:54;;;;;;;34.00;16.90;;;;;;;;;;5094083;28;20454;-68
2022/12/19 11:27:38;;;;;;;36.53;19.03;;;;;;;;;;5093990;28;20496;-68
2022/12/19 11:30:07;;;;;;;41.03;20.10;;;;;;;;;;5093961;28;20439;-68
2022/12/19 11:32:36;;;;;;;35.83;19.50;;;;;;;;;;5094097;28;20494;-68
2022/12/19 11:35:05;;;;;;;35.47;19.50;;;;;;;;;;5094192;28;20461;-68
2022/12/19 11:37:37;;;;;;;29.70;14.90;;;;;;;;;;5094105;28;20467;-68
2022/12/19 11:40:06;;;;;;;36.80;19.33;;;;;;;;;;5093914;28;20481;-68
2022/12/19 11:42:34;;;;;;;30.87;17.30;;;;;;;;;;5093705;28;20453;-68
2022/12/19 11:45:08;;;;;;;35.03;16.87;;;;;;;;;;5093974;28;20457;-68
2022/12/19 11:47:39;;;;;;;29.13;17.00;;;;;;;;;;5093913;28;20979;-68
2022/12/19 11:50:12;;;;;;;28.30;17.60;;;;;;;;;;5093909;28;20441;-68
2022/12/19 11:52:42;;;;;;;37.40;19.67;;;;;;;;;;5093829;28;20956;-68
2022/12/19 11:55:16;;;;;;;39.10;20.77;;;;;;;;;;5093854;28;20897;-68
2022/12/19 11:57:44;;;;;;;36.00;18.47;;;;;;;;;;5092537;28;21007;-68
2022/12/19 12:00:12;;;;;;;43.00;23.53;;;;;;;;;;5093829;28;20446;-68
2022/12/19 12:02:53;;;;;;;35.80;20.90;;;;;;;;;;5093756;28;20810;-68
2022/12/19 12:05:30;;;;;;;35.33;16.30;;;;;;;;;;5093715;28;20764;-68
2022/12/19 12:08:01;;;;;;;33.00;16.97;;;;;;;;;;5093608;28;20946;-69
2022/12/19 12:10:31;;;;;;;49.90;26.23;;;;;;;;;;5093708;28;20439;-68
2022/12/19 12:13:03;;;;;;;39.83;20.30;;;;;;;;;;5093591;28;20842;-68
2022/12/19 12:15:42;;;;;;;36.00;19.43;;;;;;;;;;5093628;28;20953;-68
2022/12/19 12:18:13;;;;;;;118.10;46.57;;;;;;;;;;5093544;28;20474;-68
2022/12/19 12:20:47;;;;;;;121.60;54.57;;;;;;;;;;5093532;28;20439;-68
2022/12/19 12:23:24;;;;;;;39.47;21.13;;;;;;;;;;5093626;28;20431;-68
2022/12/19 12:25:54;;;;;;;38.33;17.30;;;;;;;;;;5093573;28;20470;-68
2022/12/19 12:28:37;;;;;;;33.00;17.10;;;;;;;;;;5093107;28;20523;-68
2022/12/19 12:31:09;;;;;;;51.73;26.07;;;;;;;;;;5093144;28;20435;-68
2022/12/19 12:33:41;;;;;;;99.87;45.53;;;;;;;;;;5093367;28;20478;-68
2022/12/19 12:36:14;;;;;;;73.60;33.57;;;;;;;;;;5093308;28;20916;-68
2022/12/19 12:38:51;;;;;;;75.57;36.43;;;;;;;;;;5093344;28;20877;-68
2022/12/19 12:44:09;;;;;;;37.27;17.60;;;;;;;;;;5092730;28;20484;-68
2022/12/19 12:46:40;;;;;;;60.80;32.20;;;;;;;;;;5093049;28;20822;-68
2022/12/19 12:49:12;;;;;;;35.33;19.23;;;;;;;;;;5093238;28;20462;-68
2022/12/19 12:51:41;;;;;;;34.73;18.83;;;;;;;;;;5093245;28;20431;-68
2022/12/19 12:54:12;;;;;;;47.10;20.73;;;;;;;;;;5093139;28;20851;-69
2022/12/19 12:56:40;;;;;;;35.13;21.40;;;;;;;;;;5092969;28;20493;-68
2022/12/19 12:59:19;;;;;;;35.07;19.10;;;;;;;;;;5093098;28;20477;-69
2022/12/19 13:01:50;;;;;;;42.57;19.30;;;;;;;;;;5093181;28;20848;-68
2022/12/19 13:04:20;;;;;;;44.37;19.43;;;;;;;;;;5092957;28;20451;-68
2022/12/19 13:07:02;;;;;;;38.40;18.43;;;;;;;;;;5092760;28;20446;-68
2022/12/19 13:09:31;;;;;;;39.03;17.60;;;;;;;;;;5096550;28;20827;-68
2022/12/19 13:14:48;;;;;;;42.60;19.53;;;;;;;;;;5096454;28;20527;-69
2022/12/19 13:17:20;;;;;;;44.30;23.67;;;;;;;;;;5096527;28;20466;-69
2022/12/19 13:19:54;;;;;;;41.03;20.33;;;;;;;;;;5096744;28;20904;-69
2022/12/19 13:22:36;;;;;;;40.13;22.00;;;;;;;;;;5096619;28;20815;-69
2022/12/19 13:25:28;;;;;;;61.63;31.97;;;;;;;;;;5093262;28;20557;-69
2022/12/19 13:27:57;;;;;;;31.60;20.63;;;;;;;;;;5094823;28;20485;-69
2022/12/19 13:30:24;;;;;;;33.80;18.27;;;;;;;;;;5095356;28;20900;-69
2022/12/19 13:33:07;;;;;;;34.57;15.67;;;;;;;;;;5095099;28;20940;-69
2022/12/19 13:35:36;;;;;;;50.47;20.60;;;;;;;;;;5094698;28;20944;-69
2022/12/19 13:38:06;;;;;;;35.73;20.57;;;;;;;;;;5095182;28;21006;-69
2022/12/19 13:40:51;;;;;;;36.37;19.43;;;;;;;;;;5095187;28;20435;-69
2022/12/19 13:46:06;;;;;;;43.90;21.43;;;;;;;;;;5094701;28;20410;-69
2022/12/19 13:48:35;;;;;;;50.17;23.10;;;;;;;;;;5094439;28;20478;-69
2022/12/19 13:51:05;;;;;;;49.37;21.43;;;;;;;;;;5094703;28;20451;-69
2022/12/19 13:53:33;;;;;;;37.30;20.20;;;;;;;;;;5094770;28;20490;-69
2022/12/19 13:56:02;;;;;;;42.70;23.57;;;;;;;;;;5094641;28;20462;-69
2022/12/19 13:58:30;;;;;;;39.93;21.43;;;;;;;;;;5094577;28;20837;-69
2022/12/19 14:00:58;;;;;;;50.40;23.30;;;;;;;;;;5094692;28;20450;-69
2022/12/19 14:03:31;;;;;;;48.83;22.27;;;;;;;;;;5094745;28;20950;-69
2022/12/19 14:06:00;;;;;;;35.50;19.73;;;;;;;;;;5094407;28;20431;-69
2022/12/19 14:08:28;;;;;;;39.50;21.40;;;;;;;;;;5094583;28;20477;-70
2022/12/19 14:10:56;;;;;;;47.23;23.20;;;;;;;;;;5094176;28;20455;-69
2022/12/19 14:16:14;;;;;;;56.57;32.90;;;;;;;;;;5094327;28;20415;-69
2022/12/19 14:18:48;;;;;;;34.60;18.80;;;;;;;;;;5094426;28;20829;-69
2022/12/19 14:21:16;;;;;;;47.40;23.37;;;;;;;;;;5093502;28;20901;-69
2022/12/19 14:23:44;;;;;;;44.47;20.93;;;;;;;;;;5094004;28;20442;-69
2022/12/19 14:26:13;;;;;;;37.47;18.00;;;;;;;;;;5094320;28;20454;-69
2022/12/19 14:28:44;;;;;;;42.87;22.40;;;;;;;;;;5094118;28;20948;-69
2022/12/19 14:31:14;;;;;;;42.53;21.53;;;;;;;;;;5094045;28;20458;-69
2022/12/19 14:33:42;;;;;;;49.60;23.37;;;;;;;;;;5094357;28;20483;-69
2022/12/19 14:36:10;;;;;;;42.53;17.67;;;;;;;;;;5094070;28;20457;-69
2022/12/19 14:38:37;;;;;;;40.47;22.47;;;;;;;;;;5093903;28;20972;-69
2022/12/19 14:41:05;;;;;;;34.63;21.67;;;;;;;;;;5093661;28;20502;-69
2022/12/19 14:43:37;;;;;;;48.07;22.47;;;;;;;;;;5093761;28;20446;-69